createdAt,value
2023-05-11T00:00:18.440Z,2.720
2023-05-11T00:01:17.817Z,2.320
2023-05-11T00:02:18.186Z,1.760
2023-05-11T00:03:18.322Z,2.120
2023-05-11T00:04:17.631Z,2.560
2023-05-11T00:05:18.340Z,2.160
2023-05-11T00:06:18.566Z,3.344
2023-05-11T00:07:17.824Z,2.400
2023-05-11T00:08:20.975Z,2.760
2023-05-11T00:10:18.594Z,2.360
2023-05-11T00:11:18.004Z,2.720
2023-05-11T00:12:18.275Z,2.520
2023-05-11T00:13:18.472Z,2.636
2023-05-11T00:14:17.666Z,3.051
2023-05-11T00:15:17.859Z,3.200
2023-05-11T00:16:18.230Z,1.800
2023-05-11T00:17:17.938Z,2.280
2023-05-11T00:18:18.462Z,2.203
2023-05-11T00:19:17.801Z,1.668
2023-05-11T00:20:18.348Z,2.640
2023-05-11T00:21:18.178Z,2.040
2023-05-11T00:22:18.407Z,1.000
2023-05-11T00:23:17.618Z,1.800
2023-05-11T00:24:17.797Z,2.200
2023-05-11T00:25:17.999Z,2.480
2023-05-11T00:26:18.298Z,2.200
2023-05-11T00:27:18.537Z,1.770
2023-05-11T00:28:17.745Z,1.790
2023-05-11T00:29:17.928Z,0.920
2023-05-11T00:30:18.188Z,2.720
2023-05-11T00:31:17.716Z,1.960
2023-05-11T00:34:17.702Z,3.640
2023-05-11T00:35:17.932Z,3.680
2023-05-11T00:36:18.225Z,2.880
2023-05-11T00:37:18.570Z,1.495
2023-05-11T00:38:18.241Z,1.953
2023-05-11T00:39:18.583Z,3.148
2023-05-11T00:40:17.949Z,2.603
2023-05-11T00:41:18.354Z,1.760
2023-05-11T00:44:18.066Z,2.440
2023-05-11T00:45:18.290Z,2.520
2023-05-11T00:46:17.620Z,0.960
2023-05-11T00:47:18.281Z,1.280
2023-05-11T00:49:17.959Z,2.680
2023-05-11T00:50:18.381Z,2.080
2023-05-11T00:51:17.808Z,1.160
2023-05-11T00:52:17.973Z,0.720
2023-05-11T00:53:18.307Z,2.760
2023-05-11T00:54:18.522Z,2.518
2023-05-11T00:55:17.895Z,2.644
2023-05-11T00:56:18.043Z,1.160
2023-05-11T00:57:18.263Z,1.880
2023-05-11T00:58:18.521Z,2.007
2023-05-11T01:00:18.340Z,0.640
2023-05-11T01:01:18.325Z,2.080
2023-05-11T01:02:17.953Z,2.080
2023-05-11T01:04:18.201Z,0.840
2023-05-11T01:05:18.469Z,0.551
2023-05-11T01:06:17.656Z,1.139
2023-05-11T01:07:17.820Z,0.280
2023-05-11T01:08:17.975Z,2.040
2023-05-11T01:09:18.165Z,2.920
2023-05-11T01:10:18.632Z,2.080
2023-05-11T01:11:18.065Z,0.840
2023-05-11T01:12:18.462Z,1.220
2023-05-11T01:15:17.662Z,2.034
2023-05-11T01:16:18.140Z,1.880
2023-05-11T01:17:18.500Z,2.046
2023-05-11T01:18:17.741Z,2.359
2023-05-11T01:19:18.205Z,1.720
2023-05-11T01:20:18.176Z,2.600
2023-05-11T01:22:17.958Z,1.360
2023-05-11T01:23:18.247Z,1.240
2023-05-11T01:24:17.701Z,1.640
2023-05-11T01:25:17.977Z,1.840
2023-05-11T01:26:18.559Z,1.967
2023-05-11T01:27:17.901Z,2.685
2023-05-11T01:28:18.358Z,3.400
2023-05-11T01:29:17.564Z,3.040
2023-05-11T01:30:17.920Z,2.880
2023-05-11T01:31:18.415Z,2.200
2023-05-11T01:32:17.799Z,2.880
2023-05-11T01:33:18.255Z,1.880
2023-05-11T01:34:18.435Z,3.344
2023-05-11T01:35:17.622Z,2.644
2023-05-11T01:36:17.778Z,1.520
2023-05-11T01:37:17.970Z,2.600
2023-05-11T01:38:18.200Z,2.520
2023-05-11T01:39:18.414Z,2.080
2023-05-11T01:40:17.758Z,2.520
2023-05-11T01:41:18.258Z,1.960
2023-05-11T01:42:18.473Z,4.052
2023-05-11T01:43:17.657Z,3.580
2023-05-11T01:44:17.830Z,4.000
2023-05-11T01:45:17.996Z,3.840
2023-05-11T01:46:18.322Z,2.800
2023-05-11T01:48:18.362Z,5.080
2023-05-11T01:49:18.578Z,3.738
2023-05-11T01:51:18.370Z,3.240
2023-05-11T01:54:18.020Z,3.640
2023-05-11T01:55:18.198Z,3.000
2023-05-11T01:56:18.465Z,3.620
2023-05-11T01:57:17.679Z,3.417
2023-05-11T01:58:17.952Z,3.400
2023-05-11T01:59:18.258Z,3.920
2023-05-11T02:00:18.760Z,3.502
2023-05-11T02:01:18.303Z,4.027
2023-05-11T02:04:18.206Z,3.280
2023-05-11T02:05:18.384Z,2.520
2023-05-11T02:06:18.268Z,1.520
2023-05-11T02:07:18.450Z,2.361
2023-05-11T02:08:17.606Z,2.237
2023-05-11T02:09:17.848Z,2.480
2023-05-11T02:10:18.519Z,1.960
2023-05-11T02:12:18.323Z,3.000
2023-05-11T02:13:17.555Z,1.640
2023-05-11T02:14:17.685Z,2.800
2023-05-11T02:15:17.902Z,3.800
2023-05-11T02:16:18.180Z,4.000
2023-05-11T02:17:17.878Z,2.800
2023-05-11T02:18:18.276Z,2.560
2023-05-11T02:19:17.736Z,2.440
2023-05-11T02:20:18.189Z,3.760
2023-05-11T02:22:17.938Z,3.520
2023-05-11T02:23:18.134Z,2.680
2023-05-11T02:24:18.285Z,3.520
2023-05-11T02:25:18.473Z,3.305
2023-05-11T02:27:17.810Z,3.280
2023-05-11T02:28:18.090Z,1.560
2023-05-11T02:29:18.266Z,2.040
2023-05-11T02:30:18.784Z,1.102
2023-05-11T02:32:17.563Z,1.720
2023-05-11T02:33:17.947Z,1.960
2023-05-11T02:34:18.226Z,1.800
2023-05-11T02:35:17.840Z,1.280
2023-05-11T02:36:18.038Z,1.000
2023-05-11T02:37:18.341Z,2.520
2023-05-11T02:38:17.613Z,2.000
2023-05-11T02:39:17.876Z,2.240
2023-05-11T02:40:18.273Z,2.440
2023-05-11T02:41:18.018Z,2.000
2023-05-11T02:42:18.245Z,2.320
2023-05-11T02:43:18.531Z,2.400
2023-05-11T02:44:17.731Z,1.790
2023-05-11T02:45:17.951Z,1.920
2023-05-11T02:46:18.229Z,1.920
2023-05-11T02:47:17.693Z,1.920
2023-05-11T02:48:18.239Z,1.200
2023-05-11T02:49:18.383Z,0.960
2023-05-11T02:50:17.768Z,1.800
2023-05-11T02:51:18.413Z,1.000
2023-05-11T02:52:17.628Z,1.720
2023-05-11T02:53:17.842Z,1.240
2023-05-11T02:54:18.177Z,1.880
2023-05-11T02:55:18.437Z,1.240
2023-05-11T02:56:17.693Z,1.040
2023-05-11T02:57:17.888Z,1.840
2023-05-11T02:58:18.230Z,0.840
2023-05-11T02:59:17.919Z,2.120
2023-05-11T03:00:18.704Z,2.880
2023-05-11T03:01:18.394Z,2.280
2023-05-11T03:02:18.054Z,0.920
2023-05-11T03:03:18.416Z,0.560
2023-05-11T03:04:18.564Z,0.551
2023-05-11T03:05:17.739Z,0.976
2023-05-11T03:06:17.941Z,1.520
2023-05-11T03:07:18.163Z,1.760
2023-05-11T03:08:18.318Z,1.080
2023-05-11T03:09:18.478Z,1.613
2023-05-11T03:10:17.787Z,1.627
2023-05-11T03:11:18.511Z,0.511
2023-05-11T03:12:17.709Z,0.447
2023-05-11T03:13:17.912Z,0.520
2023-05-11T03:14:18.100Z,1.680
2023-05-11T03:15:18.285Z,1.320
2023-05-11T03:17:18.466Z,1.680
2023-05-11T03:20:18.041Z,1.520
2023-05-11T03:21:18.393Z,2.040
2023-05-11T03:22:17.534Z,1.640
2023-05-11T03:23:17.725Z,1.240
2023-05-11T03:24:17.896Z,1.320
2023-05-11T03:25:18.067Z,2.360
2023-05-11T03:26:18.254Z,2.600
2023-05-11T03:27:18.500Z,2.872
2023-05-11T03:28:17.742Z,2.685
2023-05-11T03:29:17.945Z,1.240
2023-05-11T03:30:18.345Z,2.920
2023-05-11T03:31:17.687Z,3.240
2023-05-11T03:32:18.185Z,2.120
2023-05-11T03:33:17.658Z,1.800
2023-05-11T03:34:17.803Z,3.560
2023-05-11T03:35:18.022Z,3.480
2023-05-11T03:36:18.324Z,2.920
2023-05-11T03:37:18.524Z,2.243
2023-05-11T03:38:17.725Z,3.214
2023-05-11T03:39:17.915Z,3.680
2023-05-11T03:40:18.271Z,2.680
2023-05-11T03:41:18.586Z,1.928
2023-05-11T03:42:18.036Z,2.725
2023-05-11T03:43:18.275Z,2.160
2023-05-11T03:44:18.522Z,3.974
2023-05-11T03:45:17.742Z,2.603
2023-05-11T03:46:18.069Z,3.640
2023-05-11T03:47:17.666Z,2.200
2023-05-11T03:48:18.103Z,2.680
2023-05-11T03:49:18.342Z,3.640
2023-05-11T03:50:17.710Z,3.040
2023-05-11T03:51:18.095Z,3.240
2023-05-11T03:52:18.313Z,3.720
2023-05-11T03:53:18.550Z,2.833
2023-05-11T03:54:17.846Z,2.969
2023-05-11T03:55:18.092Z,2.160
2023-05-11T03:56:18.252Z,4.040
2023-05-11T03:57:18.522Z,2.597
2023-05-11T04:00:18.430Z,2.160
2023-05-11T04:01:17.878Z,1.760
2023-05-11T04:02:18.378Z,2.040
2023-05-11T04:03:18.172Z,0.600
2023-05-11T04:04:18.544Z,2.675
2023-05-11T04:06:18.189Z,1.440
2023-05-11T04:07:18.427Z,2.200
2023-05-11T04:08:17.673Z,1.680
2023-05-11T04:09:17.874Z,1.800
2023-05-11T04:10:18.296Z,2.080
2023-05-11T04:11:17.655Z,1.320
2023-05-11T04:12:17.917Z,0.840
2023-05-11T04:13:18.188Z,1.680
2023-05-11T04:14:18.377Z,1.880
2023-05-11T04:15:17.651Z,1.640
2023-05-11T04:16:17.839Z,1.160
2023-05-11T04:17:18.342Z,2.000
2023-05-11T04:18:17.618Z,1.360
2023-05-11T04:19:18.135Z,2.120
2023-05-11T04:20:18.620Z,1.960
2023-05-11T04:21:18.133Z,2.640
2023-05-11T04:22:18.389Z,2.760
2023-05-11T04:23:17.757Z,2.120
2023-05-11T04:24:17.947Z,2.320
2023-05-11T04:25:18.198Z,2.320
2023-05-11T04:26:18.546Z,1.967
2023-05-11T04:27:17.834Z,1.546
2023-05-11T04:28:18.150Z,1.160
2023-05-11T04:29:18.351Z,2.640
2023-05-11T04:30:18.106Z,3.280
2023-05-11T04:31:17.901Z,1.200
2023-05-11T04:32:18.455Z,1.560
2023-05-11T04:33:17.792Z,2.160
2023-05-11T04:34:18.039Z,2.120
2023-05-11T04:35:18.247Z,2.160
2023-05-11T04:36:18.427Z,2.400
2023-05-11T04:37:17.660Z,1.320
2023-05-11T04:38:17.856Z,1.720
2023-05-11T04:39:18.311Z,1.880
2023-05-11T04:40:18.082Z,1.560
2023-05-11T04:41:18.548Z,2.675
2023-05-11T04:43:17.977Z,2.240
2023-05-11T04:44:18.210Z,2.480
2023-05-11T04:45:18.413Z,1.800
2023-05-11T04:46:17.704Z,1.560
2023-05-11T04:47:18.452Z,2.760
2023-05-11T04:49:17.814Z,3.200
2023-05-11T11:41:23.720Z,0.000
2023-05-11T11:42:23.916Z,10.160
2023-05-11T11:43:24.146Z,7.320
2023-05-11T11:44:24.534Z,4.997
2023-05-11T11:45:23.781Z,8.868
2023-05-11T11:46:24.152Z,5.640
2023-05-11T11:47:23.722Z,6.120
2023-05-11T11:48:24.374Z,9.400
2023-05-11T11:50:24.298Z,4.240
2023-05-11T11:51:24.519Z,5.036
2023-05-11T11:52:23.656Z,2.644
2023-05-11T11:53:24.033Z,6.320
2023-05-11T11:55:24.563Z,3.440
2023-05-11T11:57:23.972Z,7.160
2023-05-11T11:58:24.198Z,8.000
2023-05-11T11:59:24.453Z,9.089
2023-05-11T12:00:23.678Z,6.427
2023-05-11T12:01:23.966Z,7.240
2023-05-11T12:02:24.269Z,7.280
2023-05-11T12:03:24.712Z,6.960
2023-05-11T12:04:23.861Z,5.200
2023-05-11T12:05:25.634Z,4.960
2023-05-11T12:06:26.566Z,7.760
2023-05-11T12:08:24.130Z,5.200
2023-05-11T12:09:24.499Z,4.440
2023-05-11T12:10:24.053Z,3.040
2023-05-11T12:11:24.361Z,4.200
2023-05-11T12:12:23.629Z,4.160
2023-05-11T12:13:24.000Z,4.120
2023-05-11T12:14:24.337Z,6.360
2023-05-11T12:15:24.076Z,5.520
2023-05-11T12:16:24.529Z,9.240
2023-05-11T12:17:24.176Z,7.280
2023-05-11T12:19:24.370Z,6.360
2023-05-11T12:20:23.574Z,8.120
2023-05-11T12:21:23.968Z,7.840
2023-05-11T12:22:23.879Z,9.040
2023-05-11T12:23:24.016Z,5.920
2023-05-11T12:24:24.340Z,4.600
2023-05-11T12:25:23.910Z,6.160
2023-05-11T12:26:24.283Z,5.160
2023-05-11T12:27:23.659Z,8.320
2023-05-11T12:28:23.987Z,6.120
2023-05-11T12:29:24.347Z,6.920
2023-05-11T12:30:23.966Z,10.600
2023-05-11T12:31:24.292Z,6.240
2023-05-11T12:32:23.823Z,4.640
2023-05-11T12:33:24.470Z,6.177
2023-05-11T12:36:23.628Z,7.320
2023-05-11T12:37:23.921Z,6.440
2023-05-11T12:38:24.173Z,6.440
2023-05-11T12:39:24.370Z,7.760
2023-05-11T12:40:23.876Z,8.240
2023-05-11T12:41:24.239Z,6.640
2023-05-11T12:42:24.462Z,6.885
2023-05-11T12:43:23.651Z,5.125
2023-05-11T12:44:23.863Z,5.760
2023-05-11T12:45:24.469Z,5.440
2023-05-11T12:46:23.954Z,4.880
2023-05-11T12:48:24.365Z,9.640
2023-05-11T12:49:27.481Z,7.318
2023-05-11T12:50:23.697Z,7.159
2023-05-11T12:51:23.946Z,7.280
2023-05-11T12:52:24.190Z,4.440
2023-05-11T12:53:24.448Z,4.000
2023-05-11T12:54:23.633Z,4.320
2023-05-11T12:55:24.117Z,3.800
2023-05-11T12:56:24.397Z,2.920
2023-05-11T12:57:23.586Z,2.920
2023-05-11T12:58:23.901Z,2.120
2023-05-11T12:59:24.105Z,2.080
2023-05-11T13:00:25.910Z,1.800
2023-05-11T13:01:24.207Z,5.200
2023-05-11T13:03:24.793Z,6.846
2023-05-11T13:04:24.510Z,6.760
2023-05-11T13:07:24.287Z,8.480
2023-05-11T13:08:23.626Z,7.480
2023-05-11T13:09:23.830Z,7.200
2023-05-11T13:10:24.034Z,6.960
2023-05-11T13:43:55.127Z,5.202
2023-05-11T13:45:30.505Z,4.761
2023-05-11T13:46:29.775Z,4.841
2023-05-11T13:47:30.302Z,3.680
2023-05-11T13:49:30.417Z,6.360
2023-05-11T13:50:29.557Z,5.520
2023-05-11T13:51:30.053Z,6.200
2023-05-11T13:52:30.497Z,4.643
2023-05-11T13:53:29.714Z,5.166
2023-05-11T13:54:29.966Z,3.400
2023-05-11T13:55:30.232Z,8.800
2023-05-11T13:56:30.414Z,7.360
2023-05-11T13:57:29.631Z,7.480
2023-05-11T13:58:30.483Z,5.430
2023-05-11T13:59:29.757Z,1.912
2023-05-11T14:00:30.083Z,4.720
2023-05-11T14:01:29.648Z,3.440
2023-05-11T14:02:30.401Z,3.040
2023-05-11T14:03:30.568Z,3.000
2023-05-11T14:04:30.524Z,5.193
2023-05-11T14:05:29.995Z,9.153
2023-05-11T14:06:30.128Z,3.920
2023-05-11T14:07:46.418Z,3.720
2023-05-11T14:08:30.177Z,5.920
2023-05-11T14:09:30.359Z,6.800
2023-05-11T14:10:30.560Z,6.610
2023-05-11T14:11:30.100Z,3.336
2023-05-11T14:14:31.517Z,7.200
2023-05-11T14:15:30.266Z,9.275
2023-05-11T14:16:30.452Z,10.584
2023-05-11T14:17:32.851Z,8.054
2023-05-11T14:18:31.007Z,9.200
2023-05-11T14:19:29.865Z,8.680
2023-05-11T14:20:30.447Z,6.960
2023-05-11T14:21:30.032Z,9.040
2023-05-11T14:22:30.925Z,7.400
2023-05-11T14:25:31.538Z,6.767
2023-05-11T14:26:30.261Z,5.125
2023-05-11T14:27:30.444Z,4.721
2023-05-11T14:30:29.860Z,1.708
2023-05-11T14:31:30.801Z,3.400
2023-05-11T14:32:30.870Z,5.680
2023-05-11T14:33:30.936Z,4.040
2023-05-11T14:34:30.092Z,5.240
2023-05-11T14:35:30.442Z,4.000
2023-05-11T14:36:30.229Z,3.440
2023-05-11T14:37:30.445Z,3.069
2023-05-11T14:38:29.646Z,1.383
2023-05-11T14:39:29.840Z,0.200
2023-05-11T14:40:30.280Z,0.760
2023-05-11T14:41:30.516Z,3.148
2023-05-11T14:43:30.102Z,1.680
2023-05-11T14:44:32.371Z,0.393
2023-05-11T14:45:30.067Z,0.488
2023-05-11T14:46:32.609Z,0.360
2023-05-11T14:48:30.067Z,1.098
2023-05-11T14:49:30.267Z,0.440
2023-05-11T14:50:30.555Z,1.456
2023-05-11T14:51:29.767Z,1.953
2023-05-11T14:54:30.205Z,0.960
2023-05-11T14:55:32.330Z,1.298
2023-05-11T14:56:30.075Z,1.749
2023-05-11T14:57:30.295Z,3.040
2023-05-11T14:59:30.336Z,4.560
2023-05-11T15:00:30.404Z,4.680
2023-05-11T15:01:29.711Z,4.680
2023-05-11T15:02:30.691Z,4.080
2023-05-11T15:03:30.784Z,2.720
2023-05-11T15:04:32.906Z,4.120
2023-05-11T15:06:31.045Z,5.520
2023-05-11T15:07:30.262Z,5.400
2023-05-11T15:08:34.543Z,4.280
2023-05-11T15:09:30.340Z,2.240
2023-05-11T15:10:31.298Z,3.934
2023-05-11T15:11:32.568Z,3.520
2023-05-11T15:12:29.847Z,6.386
2023-05-11T15:13:30.751Z,2.520
2023-05-11T15:14:29.963Z,2.880
2023-05-11T15:15:30.167Z,3.720
2023-05-11T15:16:31.032Z,2.760
2023-05-11T15:17:32.200Z,3.520
2023-05-11T15:20:30.681Z,3.895
2023-05-11T15:21:30.305Z,3.946
2023-05-11T15:22:30.559Z,4.525
2023-05-11T15:23:29.784Z,3.905
2023-05-11T15:24:30.027Z,4.080
2023-05-11T15:25:30.910Z,4.600
2023-05-11T15:26:30.110Z,2.640
2023-05-11T15:28:31.197Z,4.120
2023-05-11T15:30:31.964Z,5.166
2023-05-11T15:31:30.525Z,7.520
2023-05-11T15:32:30.685Z,7.200
2023-05-11T15:33:30.784Z,6.080
2023-05-11T15:35:30.223Z,5.080
2023-05-11T15:36:33.681Z,4.249
2023-05-11T15:37:30.105Z,5.044
2023-05-11T15:38:30.159Z,5.160
2023-05-11T15:39:30.467Z,3.816
2023-05-11T15:40:29.642Z,5.044
2023-05-11T15:41:30.478Z,5.320
2023-05-11T15:43:30.640Z,3.880
2023-05-11T15:46:30.275Z,3.760
2023-05-11T15:47:30.095Z,4.680
2023-05-11T15:48:31.123Z,5.587
2023-05-11T15:49:30.400Z,3.458
2023-05-11T15:50:30.303Z,3.840
2023-05-11T15:51:30.518Z,4.013
2023-05-11T15:52:29.715Z,2.400
2023-05-11T15:53:30.560Z,1.920
2023-05-11T15:56:30.049Z,4.640
2023-05-11T15:57:30.929Z,4.960
2023-05-11T15:58:30.174Z,4.200
2023-05-11T15:59:31.119Z,2.990
2023-05-11T16:01:30.288Z,4.320
2023-05-11T16:02:30.306Z,3.400
2023-05-11T16:03:30.531Z,4.360
2023-05-11T16:04:30.542Z,5.784
2023-05-11T16:05:29.963Z,5.166
2023-05-11T16:06:30.746Z,4.920
2023-05-11T16:07:29.954Z,6.280
2023-05-11T16:08:30.905Z,10.160
2023-05-11T16:11:30.189Z,8.080
2023-05-11T16:12:30.446Z,11.921
2023-05-11T16:13:30.275Z,11.553
2023-05-11T16:14:30.492Z,20.302
2023-05-11T16:15:29.790Z,15.458
2023-05-11T16:16:30.676Z,10.240
2023-05-11T16:17:30.754Z,9.000
2023-05-11T16:18:30.859Z,4.680
2023-05-11T16:19:31.437Z,7.040
2023-05-11T16:20:30.174Z,8.400
2023-05-11T16:21:30.410Z,8.892
2023-05-11T16:24:31.542Z,8.542
2023-05-11T16:25:30.169Z,6.400
2023-05-11T16:26:30.344Z,7.320
2023-05-11T16:27:30.515Z,9.010
2023-05-11T16:28:29.800Z,8.095
2023-05-11T16:29:30.166Z,7.560
2023-05-11T16:30:31.249Z,7.400
2023-05-11T16:31:30.284Z,4.560
2023-05-11T16:32:30.181Z,5.240
2023-05-11T16:33:29.632Z,4.280
2023-05-11T16:34:30.393Z,5.680
2023-05-11T16:35:29.632Z,3.760
2023-05-11T16:36:29.909Z,3.680
2023-05-11T16:37:30.679Z,6.080
2023-05-11T16:38:29.957Z,5.440
2023-05-11T16:39:30.833Z,4.000
2023-05-11T16:42:31.127Z,3.305
2023-05-11T16:43:30.373Z,2.603
2023-05-11T16:46:30.565Z,3.173
2023-05-11T16:48:29.820Z,5.600
2023-05-11T16:49:29.991Z,3.360
2023-05-11T16:50:30.929Z,2.720
2023-05-11T16:52:30.423Z,4.760
2023-05-11T16:55:30.396Z,3.040
2023-05-11T16:56:29.605Z,3.400
2023-05-11T16:57:29.867Z,3.440
2023-05-11T16:58:30.683Z,4.120
2023-05-11T16:59:29.950Z,8.760
2023-05-11T17:00:30.537Z,5.080
2023-05-11T17:01:31.007Z,6.240
2023-05-11T17:02:31.110Z,7.161
2023-05-11T17:03:30.237Z,6.346
2023-05-11T17:04:30.234Z,10.280
2023-05-11T17:05:30.454Z,7.800
2023-05-11T17:06:29.694Z,9.000
2023-05-11T17:07:30.525Z,8.960
2023-05-11T17:10:30.808Z,5.680
2023-05-11T17:11:30.024Z,7.920
2023-05-11T17:12:30.311Z,10.040
2023-05-11T17:15:30.502Z,7.515
2023-05-11T17:16:30.473Z,5.492
2023-05-11T17:17:30.574Z,6.200
2023-05-11T17:18:30.650Z,6.320
2023-05-11T17:20:30.535Z,10.505
2023-05-11T17:21:29.890Z,8.461
2023-05-11T17:22:30.172Z,10.960
2023-05-11T17:23:30.355Z,9.680
2023-05-11T17:24:30.187Z,6.320
2023-05-11T17:25:30.281Z,9.840
2023-05-11T17:26:43.911Z,4.720
2023-05-11T17:27:30.441Z,4.800
2023-05-11T17:28:29.583Z,7.120
2023-05-11T17:29:29.887Z,9.560
2023-05-11T17:31:29.909Z,6.320
2023-05-11T17:32:32.568Z,7.960
2023-05-11T17:33:31.150Z,5.000
2023-05-11T17:34:30.267Z,7.200
2023-05-11T17:35:30.214Z,9.040
2023-05-11T17:36:30.483Z,8.892
2023-05-11T17:37:32.186Z,6.386
2023-05-11T17:38:30.483Z,9.400
2023-05-11T17:40:29.862Z,6.280
2023-05-11T17:41:30.076Z,5.960
2023-05-11T17:42:30.851Z,4.520
2023-05-11T17:43:30.086Z,5.240
2023-05-11T17:44:30.233Z,6.400
2023-05-11T17:45:31.201Z,5.823
2023-05-11T17:46:30.338Z,6.102
2023-05-11T17:47:30.346Z,4.160
2023-05-11T17:48:29.648Z,9.280
2023-05-11T17:49:30.470Z,7.600
2023-05-11T17:50:29.829Z,6.240
2023-05-11T17:51:30.662Z,6.680
2023-05-11T17:52:29.864Z,5.800
2023-05-11T17:53:30.289Z,4.760
2023-05-11T17:54:30.549Z,3.895
2023-05-11T17:55:30.030Z,5.085
2023-05-11T17:56:30.304Z,5.880
2023-05-11T17:57:31.236Z,5.430
2023-05-11T17:58:30.429Z,4.759
2023-05-11T18:00:30.485Z,6.640
2023-05-11T18:01:29.740Z,5.400
2023-05-11T18:02:30.747Z,7.279
2023-05-11T18:03:29.861Z,7.607
2023-05-11T18:04:29.977Z,6.560
2023-05-11T18:05:47.615Z,5.440
2023-05-11T18:06:30.145Z,6.720
2023-05-11T18:07:30.289Z,7.160
2023-05-11T18:08:30.265Z,7.040
2023-05-11T18:09:30.466Z,6.728
2023-05-11T18:11:29.720Z,7.880
2023-05-11T18:12:30.646Z,5.360
2023-05-11T18:13:29.841Z,4.800
2023-05-11T18:14:30.088Z,6.400
2023-05-11T18:15:30.911Z,5.400
2023-05-11T18:16:31.121Z,5.960
2023-05-11T18:18:30.236Z,7.160
2023-05-11T18:19:30.270Z,6.120
2023-05-11T18:20:30.476Z,8.420
2023-05-11T18:21:29.701Z,8.217
2023-05-11T18:22:30.564Z,4.520
2023-05-11T18:23:29.850Z,3.880
2023-05-11T18:24:30.759Z,6.360
2023-05-11T18:25:30.029Z,4.800
2023-05-11T18:26:30.249Z,4.280
2023-05-11T18:27:31.008Z,3.344
2023-05-11T18:29:30.360Z,2.280
2023-05-11T18:30:30.304Z,3.480
2023-05-11T18:31:30.557Z,4.446
2023-05-11T18:34:29.702Z,4.800
2023-05-11T18:35:30.000Z,4.680
2023-05-11T18:36:30.867Z,4.760
2023-05-11T18:37:30.032Z,5.000
2023-05-11T18:38:30.213Z,3.200
2023-05-11T18:39:30.375Z,3.200
2023-05-11T18:40:29.548Z,4.000
2023-05-11T18:41:30.344Z,4.120
2023-05-11T18:44:30.002Z,3.640
2023-05-11T18:45:30.156Z,3.000
2023-05-11T18:46:30.853Z,4.120
2023-05-11T18:47:30.937Z,3.840
2023-05-11T18:48:30.994Z,4.320
2023-05-11T18:49:30.213Z,4.960
2023-05-11T18:50:30.396Z,3.440
2023-05-11T18:51:30.319Z,4.000
2023-05-11T18:52:30.577Z,3.069
2023-05-11T18:53:30.464Z,4.841
2023-05-11T18:55:44.996Z,3.960
2023-05-11T18:56:30.775Z,5.000
2023-05-11T18:57:30.007Z,4.400
2023-05-11T18:58:30.233Z,3.560
2023-05-11T18:59:31.039Z,4.249
2023-05-11T19:00:30.237Z,3.498
2023-05-11T19:01:47.018Z,2.680
2023-05-11T19:03:30.300Z,3.800
2023-05-11T19:04:29.692Z,3.120
2023-05-11T19:05:29.891Z,3.600
2023-05-11T19:06:30.213Z,3.960
2023-05-11T19:07:30.415Z,3.840
2023-05-11T19:08:29.892Z,2.640
2023-05-11T19:09:30.216Z,6.960
2023-05-11T19:10:30.187Z,6.000
2023-05-11T19:11:30.267Z,5.480
2023-05-11T19:12:30.458Z,4.682
2023-05-11T19:13:29.659Z,4.637
2023-05-11T19:14:29.914Z,3.240
2023-05-11T19:15:30.161Z,4.200
2023-05-11T19:16:30.592Z,4.600
2023-05-11T19:17:30.190Z,2.720
2023-05-11T19:19:30.254Z,5.320
2023-05-11T19:20:30.575Z,4.957
2023-05-11T19:21:30.227Z,4.149
2023-05-11T19:22:30.424Z,4.249
2023-05-11T19:24:30.515Z,2.872
2023-05-11T19:25:29.682Z,5.003
2023-05-11T19:26:29.942Z,4.880
2023-05-11T19:27:30.726Z,3.560
2023-05-11T19:28:29.999Z,3.840
2023-05-11T19:29:30.905Z,5.120
2023-05-11T19:31:31.092Z,3.640
2023-05-11T19:32:30.161Z,3.040
2023-05-11T19:33:30.259Z,3.760
2023-05-11T19:34:30.495Z,5.311
2023-05-11T19:35:29.672Z,4.637
2023-05-11T19:36:30.543Z,2.160
2023-05-11T19:37:29.774Z,1.120
2023-05-11T19:38:30.674Z,3.920
2023-05-11T19:39:30.782Z,2.800
2023-05-11T19:42:39.526Z,3.800
2023-05-11T19:44:30.351Z,2.160
2023-05-11T19:45:30.288Z,1.720
2023-05-11T19:46:30.647Z,1.928
2023-05-11T19:47:30.502Z,4.678
2023-05-11T19:48:30.574Z,3.800
2023-05-11T19:49:29.910Z,1.320
2023-05-11T19:50:30.728Z,2.400
2023-05-11T19:51:29.969Z,3.280
2023-05-11T19:52:30.215Z,2.120
2023-05-11T19:53:31.026Z,2.636
2023-05-11T19:54:30.369Z,3.295
2023-05-11T19:55:31.206Z,2.675
2023-05-11T19:56:30.410Z,3.620
2023-05-11T19:58:29.570Z,1.760
2023-05-11T19:59:29.758Z,1.280
2023-05-11T20:00:29.966Z,1.080
2023-05-11T20:01:30.827Z,1.240
2023-05-11T20:02:31.035Z,2.200
2023-05-11T20:03:30.045Z,0.720
2023-05-11T20:04:30.055Z,2.040
2023-05-11T20:05:30.180Z,1.720
2023-05-11T20:06:30.450Z,0.640
2023-05-11T20:07:30.315Z,1.120
2023-05-11T20:08:30.466Z,2.715
2023-05-11T20:09:29.610Z,2.400
2023-05-11T20:10:29.871Z,3.280
2023-05-11T20:11:30.678Z,2.680
2023-05-11T20:12:30.779Z,2.800
2023-05-11T20:14:30.154Z,2.280
2023-05-11T20:15:30.367Z,2.200
2023-05-11T20:16:30.189Z,2.520
2023-05-11T20:17:30.285Z,2.440
2023-05-11T20:18:30.379Z,2.840
2023-05-11T20:19:30.438Z,2.680
2023-05-11T20:20:29.559Z,2.760
2023-05-11T20:21:29.742Z,4.520
2023-05-11T20:22:30.713Z,3.360
2023-05-11T20:23:29.854Z,6.840
2023-05-11T20:24:29.897Z,5.640
2023-05-11T20:25:30.039Z,3.800
2023-05-11T20:26:30.270Z,3.560
2023-05-11T20:27:30.490Z,4.092
2023-05-11T20:29:30.359Z,1.880
2023-05-11T20:30:29.582Z,2.960
2023-05-11T20:31:30.624Z,4.360
2023-05-11T20:32:30.633Z,4.600
2023-05-11T20:35:30.880Z,2.720
2023-05-11T20:36:30.047Z,2.960
2023-05-11T20:37:30.221Z,1.760
2023-05-11T20:38:30.465Z,2.000
2023-05-11T20:39:30.292Z,2.560
2023-05-11T20:40:30.524Z,1.613
2023-05-11T20:41:30.454Z,1.464
2023-05-11T20:45:29.846Z,3.824
2023-05-11T20:46:29.904Z,3.160
2023-05-11T20:47:30.148Z,4.520
2023-05-11T20:48:39.610Z,4.040
2023-05-11T20:49:38.279Z,2.320
2023-05-11T20:50:30.247Z,3.040
2023-05-11T20:51:30.419Z,3.640
2023-05-11T20:52:30.440Z,3.120
2023-05-11T20:55:29.970Z,2.760
2023-05-11T20:56:30.768Z,2.840
2023-05-11T20:57:30.133Z,2.200
2023-05-11T20:58:30.979Z,2.880
2023-05-11T21:01:31.317Z,2.080
2023-05-11T21:02:30.376Z,0.240
2023-05-11T21:03:30.507Z,0.275
2023-05-11T21:04:30.480Z,0.447
2023-05-11T21:05:29.640Z,1.200
2023-05-11T21:06:29.817Z,2.440
2023-05-11T21:07:30.038Z,2.680
2023-05-11T21:08:32.849Z,1.960
2023-05-11T21:09:30.030Z,3.720
2023-05-11T21:10:30.150Z,4.560
2023-05-11T21:11:30.349Z,2.160
2023-05-11T21:12:30.510Z,0.944
2023-05-11T21:13:30.323Z,0.976
2023-05-11T21:14:30.504Z,2.911
2023-05-11T21:15:29.767Z,2.359
2023-05-11T21:16:30.672Z,3.520
2023-05-11T21:17:30.726Z,6.440
2023-05-11T21:18:30.853Z,6.040
2023-05-11T21:19:30.882Z,5.160
2023-05-11T21:20:29.981Z,4.280
2023-05-11T21:21:30.231Z,3.320
2023-05-11T21:22:30.446Z,3.305
2023-05-11T21:23:30.214Z,1.871
2023-05-11T21:24:30.503Z,1.770
2023-05-11T21:25:30.433Z,3.173
2023-05-11T21:28:30.695Z,2.480
2023-05-11T21:29:29.892Z,2.800
2023-05-11T21:30:30.096Z,3.240
2023-05-11T21:34:30.217Z,0.569
2023-05-11T21:35:30.397Z,0.600
2023-05-11T21:36:30.392Z,0.120
2023-05-11T21:38:29.749Z,0.880
2023-05-11T21:39:29.953Z,1.600
2023-05-11T21:40:30.262Z,0.840
2023-05-11T21:41:30.884Z,0.118
2023-05-11T21:42:30.050Z,2.075
2023-05-11T21:43:30.259Z,2.120
2023-05-11T21:44:31.163Z,3.030
2023-05-11T21:45:30.315Z,2.888
2023-05-11T21:46:30.681Z,2.046
2023-05-11T21:47:30.282Z,3.051
2023-05-11T21:50:29.936Z,1.280
2023-05-11T21:51:30.101Z,2.280
2023-05-11T21:52:30.844Z,2.560
2023-05-11T21:53:30.026Z,2.080
2023-05-11T21:54:30.213Z,0.520
2023-05-11T21:55:31.114Z,1.338
2023-05-11T21:56:30.224Z,0.569
2023-05-11T21:57:30.429Z,1.280
2023-05-11T21:58:30.322Z,0.680
2023-05-11T21:59:30.510Z,0.551
2023-05-11T22:00:33.549Z,0.325
2023-05-11T22:02:30.467Z,1.640
2023-05-11T22:03:30.906Z,1.600
2023-05-11T22:05:30.992Z,0.826
2023-05-11T22:07:30.450Z,1.849
2023-05-11T22:08:30.268Z,2.766
2023-05-11T22:09:30.404Z,1.180
2023-05-11T22:12:30.724Z,1.480
2023-05-11T22:13:29.893Z,1.480
2023-05-11T22:14:30.771Z,0.680
2023-05-11T22:17:30.139Z,1.760
2023-05-11T22:18:30.194Z,1.760
2023-05-11T22:19:30.252Z,1.480
2023-05-11T22:20:30.519Z,1.023
2023-05-11T22:21:30.449Z,1.993
2023-05-11T22:23:29.747Z,0.480